PACV METAR and TAF weather

Enter ICAO airport designator
Station Type Date Time Source
PACV METAR 2021/05/10 22:53 UTC NOAA

PACV 102253Z 13005KT 10SM BKN034 BKN042 OVC055 08/03 A3014 RMK AO2 SLP207 T00830028


Station Type Date Time Source
PACV Decoded METAR 2021/05/10 22:53 UTC NOAA

MERLE K. SMITH AIRPORT, AK, United States (PACV) 60-30N 145-29W 13M
May 10, 2021 - 06:53 PM EDT / 2021.05.10 2253 UTC
Wind: from the SE (130 degrees) at 6 MPH (5 KT):0
Visibility: 10 mile(s):0
Sky conditions: overcast
Temperature: 46.9 F (8.3 C)
Dew Point: 37.0 F (2.8 C)
Relative Humidity: 68%
Pressure (altimeter): 30.14 in. Hg (1020 hPa)
ob: PACV 102253Z 13005KT 10SM BKN034 BKN042 OVC055 08/03 A3014 RMK AO2 SLP207 T00830028
cycle: 23

Station Type Date Time Source
PACV TAF 2021/05/10 18:22 UTC NOAA

TAF PACV 101720Z 1018/1118 VRB02KT P6SM OVC025
FM110900 VRB02KT P6SM -RA OVC025

Example: see airport list